createdAt,value
2022-10-25T00:03:21.489Z,101136.88
2022-10-25T00:08:24.369Z,101137.81
2022-10-25T00:13:28.709Z,101140.56
2022-10-25T00:18:31.614Z,101145.00
2022-10-25T00:23:34.484Z,101145.91
2022-10-25T00:28:39.313Z,101140.56
2022-10-25T00:33:45.991Z,101154.72
2022-10-25T00:38:49.249Z,101155.66
2022-10-25T00:43:55.472Z,101153.94
2022-10-25T00:49:03.282Z,101156.38
2022-10-25T00:54:08.892Z,101166.13
2022-10-25T00:59:17.061Z,101166.97
2022-10-25T01:04:23.616Z,101166.97
2022-10-25T01:09:28.524Z,101160.81
2022-10-25T01:14:36.348Z,101166.16
2022-10-25T01:19:58.344Z,101167.69
2022-10-25T01:25:26.115Z,101170.34
2022-10-25T01:30:46.095Z,101180.16
2022-10-25T01:35:56.344Z,101180.16
2022-10-25T01:41:12.741Z,101179.00
2022-10-25T01:46:24.746Z,101196.72
2022-10-25T01:51:29.733Z,101196.03
2022-10-25T01:56:39.984Z,101191.66
2022-10-25T02:02:00.607Z,101199.47
2022-10-25T02:07:08.603Z,101199.31
2022-10-25T02:12:20.074Z,101207.13
2022-10-25T02:17:28.596Z,101208.66
2022-10-25T02:22:35.827Z,101212.97
2022-10-25T02:27:40.848Z,101212.06
2022-10-25T02:32:45.347Z,101212.94
2022-10-25T02:37:48.586Z,101220.16
2022-10-25T02:42:52.053Z,101228.16
2022-10-25T02:47:56.329Z,101213.22
2022-10-25T02:52:59.236Z,101221.13
2022-10-25T02:58:02.157Z,101212.84
2022-10-25T03:03:06.442Z,101234.81
2022-10-25T03:08:09.334Z,101228.59
2022-10-25T03:13:12.300Z,101241.81
2022-10-25T03:18:17.324Z,101234.56
2022-10-25T03:23:20.327Z,101247.69
2022-10-25T03:28:24.056Z,101251.34
2022-10-25T03:33:28.406Z,101254.06
2022-10-25T03:38:31.272Z,101259.16
2022-10-25T03:43:34.236Z,101259.81
2022-10-25T03:48:38.481Z,101261.22
2022-10-25T03:53:41.391Z,101270.00
2022-10-25T03:58:44.248Z,101282.09
2022-10-25T04:03:48.474Z,101285.50
2022-10-25T04:08:51.749Z,101288.16
2022-10-25T04:13:54.609Z,101292.94
2022-10-25T04:18:59.159Z,101309.50
2022-10-25T04:24:04.339Z,101300.56
2022-10-25T04:29:08.090Z,101299.53
2022-10-25T04:34:12.798Z,101300.81
2022-10-25T04:39:15.670Z,101306.00
2022-10-25T04:44:18.707Z,101319.94
2022-10-25T04:49:23.201Z,101308.47
2022-10-25T04:54:26.100Z,101324.19
2022-10-25T04:59:28.998Z,101346.22
2022-10-25T05:04:33.410Z,101351.53
2022-10-25T05:09:36.261Z,101349.91
2022-10-25T05:14:39.194Z,101351.72
2022-10-25T05:19:43.600Z,101363.28
2022-10-25T05:24:46.587Z,101366.84
2022-10-25T05:29:49.624Z,101352.72
2022-10-25T05:34:53.953Z,101365.81
2022-10-25T05:39:56.830Z,101373.78
2022-10-25T05:44:59.975Z,101374.53
2022-10-25T05:50:04.382Z,101378.91
2022-10-25T05:55:08.009Z,101388.59
2022-10-25T06:00:11.894Z,101388.69
2022-10-25T06:05:16.308Z,101399.97
2022-10-25T06:10:19.629Z,101401.41
2022-10-25T06:15:22.575Z,101408.28
2022-10-25T06:20:27.144Z,101412.56
2022-10-25T06:25:30.170Z,101422.16
2022-10-25T06:30:33.742Z,101425.66
2022-10-25T06:35:38.081Z,101426.69
2022-10-25T06:40:41.058Z,101431.38
2022-10-25T06:45:44.022Z,101432.41
2022-10-25T06:50:51.407Z,101445.03
2022-10-25T06:55:55.326Z,101449.72
2022-10-25T07:01:02.266Z,101451.72
2022-10-25T07:06:08.259Z,101461.53
2022-10-25T07:11:15.511Z,101467.69
2022-10-25T07:16:20.042Z,101465.16
2022-10-25T07:21:24.437Z,101479.47
2022-10-25T07:26:30.310Z,101484.06
2022-10-25T07:31:37.036Z,101490.44
2022-10-25T07:36:41.411Z,101491.41
2022-10-25T07:41:44.319Z,101500.31
2022-10-25T07:46:47.343Z,101497.94
2022-10-25T07:51:52.037Z,101505.75
2022-10-25T07:56:55.088Z,101512.22
2022-10-25T08:40:37.389Z,101530.09
2022-10-25T08:45:49.227Z,101526.13
2022-10-25T08:50:56.534Z,101541.00
2022-10-25T08:56:16.201Z,101539.03
2022-10-25T09:01:25.258Z,101542.47
2022-10-25T09:06:37.593Z,101550.38
2022-10-25T09:11:53.014Z,101557.50
2022-10-25T09:17:05.281Z,101563.00
2022-10-25T09:22:15.819Z,101562.94
2022-10-25T09:27:28.828Z,101573.78
2022-10-25T09:32:38.815Z,101577.50
2022-10-25T09:37:46.780Z,101580.53
2022-10-25T09:42:55.220Z,101583.31
2022-10-25T09:48:07.578Z,101583.22
2022-10-25T09:53:13.399Z,101583.03
2022-10-25T09:58:22.685Z,101593.22
2022-10-25T10:03:31.183Z,101596.84
2022-10-25T10:08:36.835Z,101597.88
2022-10-25T10:13:45.864Z,101605.13
2022-10-25T10:18:48.918Z,101622.22
2022-10-25T10:23:54.756Z,101615.09
2022-10-25T10:29:15.371Z,101611.22
2022-10-25T10:34:25.529Z,101616.41
2022-10-25T10:39:28.539Z,101607.72
2022-10-25T10:44:34.898Z,101614.34
2022-10-25T10:49:40.147Z,101609.31
2022-10-25T10:54:48.413Z,101609.91
2022-10-25T10:59:57.231Z,101611.72
2022-10-25T11:05:00.179Z,101614.53
2022-10-25T11:10:27.562Z,101609.84
2022-10-25T11:15:34.657Z,101613.03
2022-10-25T11:20:50.045Z,101613.34
2022-10-25T11:25:59.554Z,101625.25
2022-10-25T11:31:14.174Z,101627.44
2022-10-25T11:36:32.809Z,101620.47
2022-10-25T11:41:46.343Z,101618.94
2022-10-25T11:46:58.661Z,101625.50
2022-10-25T11:52:22.076Z,101611.59
2022-10-25T11:57:38.324Z,101628.25
2022-10-25T12:02:57.522Z,101623.59
2022-10-25T12:08:13.045Z,101613.19
2022-10-25T12:13:20.449Z,101616.59
2022-10-25T12:18:28.032Z,101613.00
2022-10-25T12:23:37.681Z,101624.50
2022-10-25T12:28:45.466Z,101612.81
2022-10-25T12:33:54.937Z,101597.59
2022-10-25T12:39:00.769Z,101621.94
2022-10-25T12:44:18.133Z,101616.56
2022-10-25T12:49:51.012Z,101613.13
2022-10-25T12:55:33.351Z,101610.66
2022-10-25T13:00:43.193Z,101612.19
2022-10-25T13:06:27.972Z,101594.81
2022-10-25T13:11:36.371Z,101605.81
2022-10-25T13:16:39.305Z,101604.97
2022-10-25T13:22:12.165Z,101606.72
2022-10-25T13:27:21.754Z,101601.25
2022-10-25T13:32:25.723Z,101603.59
2022-10-25T13:37:46.044Z,101601.78
2022-10-25T13:42:51.323Z,101608.06
2022-10-25T13:47:56.418Z,101606.38
2022-10-25T13:53:05.618Z,101598.38
2022-10-25T13:58:43.803Z,101593.88
2022-10-25T14:03:48.394Z,101590.19
2022-10-25T14:08:59.763Z,101588.44
2022-10-25T14:14:08.363Z,101586.50
2022-10-25T14:19:16.578Z,101583.81
2022-10-25T14:24:21.405Z,101582.03
2022-10-25T14:29:27.062Z,101578.66
2022-10-25T14:34:30.605Z,101569.63
2022-10-25T14:39:35.137Z,101571.28
2022-10-25T14:44:46.981Z,101565.94
2022-10-25T14:49:49.975Z,101557.13
2022-10-25T14:54:59.302Z,101556.34
2022-10-25T15:00:05.249Z,101552.09
2022-10-25T15:05:17.909Z,101551.22
2022-10-25T15:10:37.889Z,101544.81
2022-10-25T15:15:44.816Z,101543.69
2022-10-25T15:20:50.874Z,101555.88
2022-10-25T15:25:55.317Z,101557.59
2022-10-25T15:31:03.451Z,101554.81
2022-10-25T15:36:07.097Z,101558.31
2022-10-25T15:41:11.483Z,101532.53
2022-10-25T15:46:24.940Z,101541.22
2022-10-25T15:51:30.946Z,101538.38
2022-10-25T15:56:35.674Z,101547.03
2022-10-25T16:01:39.523Z,101539.75
2022-10-25T16:06:42.772Z,101548.28
2022-10-25T16:11:54.328Z,101535.56
2022-10-25T16:17:00.623Z,101544.97
2022-10-25T16:22:03.626Z,101533.91
2022-10-25T16:27:08.157Z,101546.78
2022-10-25T16:32:11.061Z,101547.31
2022-10-25T16:37:14.053Z,101548.72
2022-10-25T16:42:32.330Z,101530.63
2022-10-25T16:47:36.932Z,101544.59
2022-10-25T16:52:40.137Z,101546.94
2022-10-25T16:57:44.470Z,101540.38
2022-10-25T17:02:47.812Z,101538.22
2022-10-25T17:07:51.674Z,101529.88
2022-10-25T17:13:03.359Z,101528.78
2022-10-25T17:18:06.690Z,101524.13
2022-10-25T17:23:09.819Z,101525.59
2022-10-25T17:28:14.461Z,101526.13
2022-10-25T17:33:17.596Z,101525.75
2022-10-25T17:38:21.038Z,101531.53
2022-10-25T17:43:25.601Z,101537.38
2022-10-25T17:48:28.929Z,101542.38
2022-10-25T17:53:32.265Z,101536.91
2022-10-25T17:58:36.656Z,101529.66
2022-10-25T18:03:40.365Z,101539.22
2022-10-25T18:08:43.497Z,101536.34
2022-10-25T18:13:47.733Z,101537.06
2022-10-25T18:18:50.659Z,101528.88
2022-10-25T18:23:55.587Z,101541.97
2022-10-25T18:29:00.106Z,101542.56
2022-10-25T18:34:04.822Z,101542.34
2022-10-25T18:39:10.822Z,101539.59
2022-10-25T18:44:15.488Z,101542.16
2022-10-25T18:49:18.643Z,101539.41
2022-10-25T18:54:21.617Z,101531.09
2022-10-25T18:59:26.981Z,101532.72
2022-10-25T19:04:30.176Z,101524.69
2022-10-25T19:09:33.199Z,101523.63
2022-10-25T19:14:37.491Z,101522.53
2022-10-25T19:19:40.474Z,101518.78
2022-10-25T19:24:43.641Z,101503.50
2022-10-25T19:29:49.281Z,101507.91
2022-10-25T19:34:52.310Z,101511.97
2022-10-25T19:39:56.888Z,101503.91
2022-10-25T19:45:03.752Z,101496.56
2022-10-25T19:50:07.584Z,101502.69
2022-10-25T19:55:10.745Z,101503.38
2022-10-25T20:00:15.987Z,101495.28
2022-10-25T20:05:18.869Z,101492.44
2022-10-25T20:10:21.850Z,101477.28
2022-10-25T20:15:26.236Z,101472.75
2022-10-25T20:20:29.191Z,101472.66
2022-10-25T20:25:32.052Z,101483.03
2022-10-25T20:30:38.693Z,101474.91
2022-10-25T20:35:44.535Z,101473.94
2022-10-25T20:40:49.331Z,101479.06
2022-10-25T20:45:53.876Z,101471.84
2022-10-25T20:50:57.113Z,101447.47
2022-10-25T20:56:00.476Z,101471.34
2022-10-25T21:01:11.263Z,101474.72
2022-10-25T21:06:15.775Z,101476.44
2022-10-25T21:11:19.339Z,101477.00
2022-10-25T21:16:35.070Z,101461.63
2022-10-25T21:21:46.175Z,101470.44
2022-10-25T21:26:50.010Z,101465.59
2022-10-25T21:31:54.374Z,101474.28
2022-10-25T21:36:57.643Z,101470.22
2022-10-25T21:42:00.543Z,101475.19
2022-10-25T21:47:04.941Z,101463.53
2022-10-25T21:52:08.240Z,101465.75
2022-10-25T21:57:11.227Z,101469.19
2022-10-25T22:02:15.910Z,101465.63
2022-10-25T22:07:19.026Z,101471.72
2022-10-25T22:12:21.958Z,101462.97
2022-10-25T22:17:26.362Z,101464.84
2022-10-25T22:22:29.287Z,101464.84
2022-10-25T22:27:32.238Z,101466.56
2022-10-25T22:32:36.670Z,101457.72
2022-10-25T22:37:39.614Z,101453.22
2022-10-25T22:42:42.596Z,101446.94
2022-10-25T22:47:47.204Z,101449.69
2022-10-25T22:52:50.314Z,101428.13
2022-10-25T22:57:54.444Z,101435.59
2022-10-25T23:02:59.135Z,101427.59
2022-10-25T23:08:02.125Z,101429.41
2022-10-25T23:13:05.197Z,101431.25
2022-10-25T23:18:09.463Z,101433.00
2022-10-25T23:23:12.385Z,101422.47
2022-10-25T23:28:15.593Z,101422.59
2022-10-25T23:33:19.916Z,101419.22
2022-10-25T23:38:23.201Z,101419.41
2022-10-25T23:43:26.094Z,101413.53
2022-10-25T23:48:30.924Z,101405.59
2022-10-25T23:53:35.058Z,101415.41
2022-10-25T23:58:38.942Z,101404.03
